Time;durP1;ratioP1;P1;durP2;ratioP2;P2;SDS_P1;SDS_P2;PMS_P1;PMS_P2;Temp;Humidity;BMP_temperature;BMP_pressure;BME280_temperature;BME280_humidity;BME280_pressure;Samples;Min_cycle;Max_cycle;Signal;HPM_P1;HPM_P2
2023/03/18 00:00:33;;;;;;;1.65;0.73;;;;;;;;;;5057000;28;20391;-58
2023/03/18 00:02:58;;;;;;;1.85;0.85;;;;;;;;;;5057483;28;20033;-58
2023/03/18 00:05:24;;;;;;;1.90;1.25;;;;;;;;;;5056887;28;20490;-58
2023/03/18 00:07:51;;;;;;;1.92;0.77;;;;;;;;;;5056764;28;20068;-58
2023/03/18 00:10:17;;;;;;;2.50;1.00;;;;;;;;;;5056825;28;20021;-57
2023/03/18 00:12:43;;;;;;;2.78;1.23;;;;;;;;;;5056599;28;20052;-58
2023/03/18 00:15:11;;;;;;;5.93;0.95;;;;;;;;;;5056672;28;20043;-57
2023/03/18 00:17:39;;;;;;;2.15;0.98;;;;;;;;;;5056533;28;20066;-55
2023/03/18 00:20:05;;;;;;;1.85;1.00;;;;;;;;;;5056573;28;20029;-58
2023/03/18 00:22:36;;;;;;;1.30;0.70;;;;;;;;;;5056894;28;20025;-56
2023/03/18 00:25:02;;;;;;;2.03;0.82;;;;;;;;;;5057157;28;20052;-58
2023/03/18 00:27:29;;;;;;;3.40;1.17;;;;;;;;;;5056489;28;20025;-57
2023/03/18 00:29:55;;;;;;;2.60;1.63;;;;;;;;;;5056364;28;20029;-56
2023/03/18 00:32:21;;;;;;;1.67;0.82;;;;;;;;;;5056383;28;20061;-57
2023/03/18 00:34:48;;;;;;;4.57;1.25;;;;;;;;;;5056364;28;20025;-57
2023/03/18 00:37:18;;;;;;;5.28;0.95;;;;;;;;;;5056197;28;20033;-56
2023/03/18 00:39:45;;;;;;;1.55;0.80;;;;;;;;;;5056855;28;20055;-58
2023/03/18 00:42:12;;;;;;;6.13;1.10;;;;;;;;;;5057225;28;20120;-58
2023/03/18 00:44:38;;;;;;;2.90;1.30;;;;;;;;;;5056128;28;20052;-58
2023/03/18 00:47:05;;;;;;;2.90;1.40;;;;;;;;;;5055737;28;20112;-57
2023/03/18 00:49:32;;;;;;;3.08;1.17;;;;;;;;;;5056228;28;20344;-58
2023/03/18 00:51:58;;;;;;;3.53;1.55;;;;;;;;;;5056527;28;20025;-58
2023/03/18 00:54:24;;;;;;;4.70;1.70;;;;;;;;;;5056191;28;20379;-56
2023/03/18 00:56:50;;;;;;;2.40;1.52;;;;;;;;;;5056138;28;20024;-57
2023/03/18 00:59:17;;;;;;;1.80;0.90;;;;;;;;;;5055899;28;20092;-57
2023/03/18 01:01:43;;;;;;;2.67;1.00;;;;;;;;;;5056281;28;20111;-57
2023/03/18 01:04:09;;;;;;;2.15;1.15;;;;;;;;;;5056535;28;20503;-58
2023/03/18 01:06:36;;;;;;;2.22;1.10;;;;;;;;;;5056247;28;20024;-56
2023/03/18 01:09:03;;;;;;;2.90;0.95;;;;;;;;;;5055703;28;20032;-58
2023/03/18 01:11:29;;;;;;;2.00;0.98;;;;;;;;;;5054344;28;20025;-58
2023/03/18 01:13:56;;;;;;;3.97;1.20;;;;;;;;;;5055353;28;20060;-58
2023/03/18 01:16:22;;;;;;;3.80;1.35;;;;;;;;;;5055911;28;20032;-56
2023/03/18 01:18:48;;;;;;;2.30;0.73;;;;;;;;;;5055429;28;20037;-58
2023/03/18 01:21:14;;;;;;;2.33;1.25;;;;;;;;;;5055650;28;20032;-58
2023/03/18 01:23:41;;;;;;;1.85;1.15;;;;;;;;;;5056145;28;20025;-56
2023/03/18 01:26:08;;;;;;;2.15;1.45;;;;;;;;;;5055582;28;20469;-57
2023/03/18 01:28:34;;;;;;;1.92;1.20;;;;;;;;;;5055924;28;20410;-58
2023/03/18 01:31:00;;;;;;;6.40;1.58;;;;;;;;;;5054599;28;20025;-57
2023/03/18 01:33:28;;;;;;;2.30;1.30;;;;;;;;;;5055222;28;20054;-57
2023/03/18 01:35:55;;;;;;;2.45;1.10;;;;;;;;;;5055767;28;20029;-55
2023/03/18 01:38:22;;;;;;;1.30;0.68;;;;;;;;;;5055064;28;20044;-57
2023/03/18 01:40:48;;;;;;;1.95;1.17;;;;;;;;;;5055020;28;20356;-56
2023/03/18 01:43:19;;;;;;;1.80;0.65;;;;;;;;;;5055523;28;20075;-58
2023/03/18 01:45:45;;;;;;;;;;;;;;;;;;5055435;28;20025;-54
2023/03/18 01:48:18;;;;;;;2.47;1.10;;;;;;;;;;5054993;28;19904;-55
2023/03/18 01:50:46;;;;;;;2.35;0.95;;;;;;;;;;5055204;28;20071;-55
2023/03/18 01:53:14;;;;;;;3.88;1.23;;;;;;;;;;5055438;28;20029;-57
2023/03/18 01:55:41;;;;;;;5.25;1.00;;;;;;;;;;5054839;28;20028;-57
2023/03/18 01:58:12;;;;;;;1.75;0.90;;;;;;;;;;5054184;28;20047;-58
2023/03/18 02:00:41;;;;;;;2.58;1.13;;;;;;;;;;5055094;28;20028;-56
2023/03/18 02:03:07;;;;;;;3.55;0.98;;;;;;;;;;5054979;28;20033;-58
2023/03/18 02:05:34;;;;;;;1.75;0.70;;;;;;;;;;5055183;28;20359;-58
2023/03/18 02:08:00;;;;;;;2.13;1.15;;;;;;;;;;5055659;28;20087;-58
2023/03/18 02:10:28;;;;;;;1.23;0.63;;;;;;;;;;5054561;28;20028;-55
2023/03/18 02:12:59;;;;;;;4.80;0.98;;;;;;;;;;5054313;28;20049;-54
2023/03/18 02:15:26;;;;;;;2.65;0.98;;;;;;;;;;5054401;28;20061;-55
2023/03/18 02:17:58;;;;;;;7.35;1.17;;;;;;;;;;5054263;28;20033;-56
2023/03/18 02:20:42;;;;;;;8.45;0.80;;;;;;;;;;5055174;28;20059;-57
2023/03/18 02:23:28;;;;;;;2.85;0.90;;;;;;;;;;5054199;28;20021;-56
2023/03/18 02:25:59;;;;;;;3.78;1.30;;;;;;;;;;5054266;28;20458;-52
2023/03/18 02:28:27;;;;;;;1.75;0.80;;;;;;;;;;5054425;28;20122;-55
2023/03/18 02:30:57;;;;;;;2.38;0.93;;;;;;;;;;5054609;28;20025;-52
2023/03/18 02:33:26;;;;;;;1.27;0.85;;;;;;;;;;5054128;28;20471;-55
2023/03/18 02:35:56;;;;;;;2.83;0.82;;;;;;;;;;5054669;28;20104;-52
2023/03/18 02:38:22;;;;;;;2.22;1.58;;;;;;;;;;5053948;28;20371;-55
2023/03/18 02:40:48;;;;;;;1.55;0.88;;;;;;;;;;5054302;28;20027;-55
2023/03/18 02:43:22;;;;;;;2.08;1.13;;;;;;;;;;5053982;28;20120;-55
2023/03/18 02:45:54;;;;;;;2.80;0.70;;;;;;;;;;5054035;28;20021;-56
2023/03/18 02:48:22;;;;;;;2.42;0.90;;;;;;;;;;5053866;28;20029;-54
2023/03/18 02:50:49;;;;;;;2.20;1.38;;;;;;;;;;5053870;28;20503;-54
2023/03/18 02:53:15;;;;;;;2.58;1.27;;;;;;;;;;5053853;28;20021;-54
2023/03/18 02:55:41;;;;;;;2.83;0.90;;;;;;;;;;5054380;28;20036;-55
2023/03/18 02:58:08;;;;;;;3.33;0.63;;;;;;;;;;5053759;28;20463;-55
2023/03/18 03:00:34;;;;;;;3.75;0.90;;;;;;;;;;5053730;28;20029;-56
2023/03/18 03:03:00;;;;;;;2.03;1.25;;;;;;;;;;5053989;28;20029;-57
2023/03/18 03:05:27;;;;;;;3.30;1.33;;;;;;;;;;5053751;28;20025;-58
2023/03/18 03:07:52;;;;;;;0.85;0.60;;;;;;;;;;5054231;28;20052;-58
2023/03/18 03:10:19;;;;;;;1.35;0.75;;;;;;;;;;5053469;28;20025;-58
2023/03/18 03:12:45;;;;;;;1.25;0.68;;;;;;;;;;5053494;28;20049;-57
2023/03/18 03:15:11;;;;;;;1.52;0.82;;;;;;;;;;5053923;28;20079;-57
2023/03/18 03:17:38;;;;;;;2.83;1.10;;;;;;;;;;5053130;28;20071;-58
2023/03/18 03:20:05;;;;;;;5.28;1.00;;;;;;;;;;5053552;28;20090;-58
2023/03/18 03:22:32;;;;;;;3.38;1.33;;;;;;;;;;5053608;28;20087;-58
2023/03/18 03:24:58;;;;;;;3.03;1.42;;;;;;;;;;5053575;28;20025;-58
2023/03/18 03:27:25;;;;;;;1.85;0.93;;;;;;;;;;5053433;28;20450;-56
2023/03/18 03:29:50;;;;;;;1.77;0.88;;;;;;;;;;5053358;28;20026;-55
2023/03/18 03:32:17;;;;;;;1.88;0.88;;;;;;;;;;5053484;28;20025;-58
2023/03/18 03:34:43;;;;;;;3.30;1.02;;;;;;;;;;5053466;28;20099;-57
2023/03/18 03:37:09;;;;;;;2.17;1.00;;;;;;;;;;5053143;28;20546;-56
2023/03/18 03:39:35;;;;;;;1.02;0.50;;;;;;;;;;5053175;28;20083;-58
2023/03/18 03:42:01;;;;;;;2.63;1.30;;;;;;;;;;5053418;28;20370;-56
2023/03/18 03:44:27;;;;;;;2.75;1.02;;;;;;;;;;5053376;28;20441;-58
2023/03/18 03:46:53;;;;;;;2.55;0.90;;;;;;;;;;5053114;28;20036;-57
2023/03/18 03:49:19;;;;;;;1.75;0.98;;;;;;;;;;5053227;28;20017;-56
2023/03/18 03:51:45;;;;;;;1.58;0.75;;;;;;;;;;5053285;28;20032;-57
2023/03/18 03:54:15;;;;;;;2.53;0.90;;;;;;;;;;5053250;28;20465;-57
2023/03/18 03:56:41;;;;;;;1.60;0.93;;;;;;;;;;5053848;28;20025;-55
2023/03/18 03:59:08;;;;;;;1.38;0.70;;;;;;;;;;5053037;28;20556;-56
2023/03/18 04:01:35;;;;;;;2.88;0.60;;;;;;;;;;5053178;28;20103;-57
2023/03/18 04:04:01;;;;;;;2.33;1.23;;;;;;;;;;5053179;28;20028;-54
2023/03/18 04:06:28;;;;;;;1.75;0.60;;;;;;;;;;5053725;28;20064;-56
2023/03/18 04:08:54;;;;;;;1.77;0.80;;;;;;;;;;5053155;28;20029;-56
2023/03/18 04:11:20;;;;;;;2.85;0.90;;;;;;;;;;5053084;28;20434;-57
2023/03/18 04:13:46;;;;;;;2.85;0.70;;;;;;;;;;5053195;28;20136;-57
2023/03/18 04:16:13;;;;;;;2.22;1.17;;;;;;;;;;5053316;28;20456;-55
2023/03/18 04:18:39;;;;;;;3.10;0.70;;;;;;;;;;5052920;28;20029;-53
2023/03/18 04:21:05;;;;;;;1.50;0.73;;;;;;;;;;5055177;28;20343;-58
2023/03/18 04:23:32;;;;;;;2.22;0.88;;;;;;;;;;5057296;28;20033;-54
2023/03/18 04:25:58;;;;;;;2.03;0.80;;;;;;;;;;5057096;28;20116;-57
2023/03/18 04:28:24;;;;;;;1.80;0.95;;;;;;;;;;5056511;28;20029;-58
2023/03/18 04:30:50;;;;;;;0.93;0.43;;;;;;;;;;5056412;28;20089;-57
2023/03/18 04:33:17;;;;;;;1.95;1.08;;;;;;;;;;5056405;28;20025;-56
2023/03/18 04:35:43;;;;;;;2.58;1.13;;;;;;;;;;5056491;28;20459;-58
2023/03/18 04:38:09;;;;;;;1.90;0.75;;;;;;;;;;5056299;28;20096;-56
2023/03/18 04:40:35;;;;;;;1.75;0.70;;;;;;;;;;5056282;28;20094;-57
2023/03/18 04:43:01;;;;;;;2.00;0.65;;;;;;;;;;5056303;28;20025;-54
2023/03/18 04:45:28;;;;;;;1.98;1.25;;;;;;;;;;5056755;28;20079;-57
2023/03/18 04:47:54;;;;;;;1.20;0.65;;;;;;;;;;5056836;28;20124;-57
2023/03/18 04:50:20;;;;;;;1.50;0.88;;;;;;;;;;5055268;28;20075;-57
2023/03/18 04:52:46;;;;;;;1.30;0.73;;;;;;;;;;5056902;28;20395;-56
2023/03/18 04:55:15;;;;;;;4.55;0.95;;;;;;;;;;5056842;28;20063;-57
2023/03/18 04:57:41;;;;;;;1.30;0.75;;;;;;;;;;5055857;28;20383;-52
2023/03/18 05:00:10;;;;;;;2.20;1.10;;;;;;;;;;5056222;28;20027;-52
2023/03/18 05:02:36;;;;;;;7.57;0.90;;;;;;;;;;5055860;28;20031;-54
2023/03/18 05:05:02;;;;;;;4.95;0.93;;;;;;;;;;5056233;28;20025;-55
2023/03/18 05:07:28;;;;;;;2.55;1.00;;;;;;;;;;5056550;28;20087;-55
2023/03/18 05:09:54;;;;;;;2.00;0.93;;;;;;;;;;5055819;28;20021;-53
2023/03/18 05:12:20;;;;;;;2.13;0.82;;;;;;;;;;5055568;28;20057;-56
2023/03/18 05:14:46;;;;;;;1.80;1.15;;;;;;;;;;5056273;28;20024;-56
2023/03/18 05:17:15;;;;;;;2.28;1.00;;;;;;;;;;5055482;28;20360;-53
2023/03/18 05:19:42;;;;;;;1.60;0.80;;;;;;;;;;5056089;28;20384;-54
2023/03/18 05:22:09;;;;;;;1.88;0.65;;;;;;;;;;5055764;28;20466;-54
2023/03/18 05:24:35;;;;;;;1.13;0.60;;;;;;;;;;5056069;28;20352;-53
2023/03/18 05:27:01;;;;;;;1.58;0.77;;;;;;;;;;5056061;28;20061;-56
2023/03/18 05:29:27;;;;;;;4.18;1.00;;;;;;;;;;5055321;28;20052;-52
2023/03/18 05:31:53;;;;;;;2.92;1.08;;;;;;;;;;5054433;28;20029;-52
2023/03/18 05:34:20;;;;;;;4.28;1.02;;;;;;;;;;5055440;28;20029;-51
2023/03/18 05:36:46;;;;;;;2.05;0.85;;;;;;;;;;5055383;28;20458;-55
2023/03/18 05:39:12;;;;;;;2.70;1.27;;;;;;;;;;5055686;28;20043;-54
2023/03/18 05:41:38;;;;;;;1.48;0.80;;;;;;;;;;5055143;28;20432;-54
2023/03/18 05:44:04;;;;;;;3.33;0.80;;;;;;;;;;5055771;28;20029;-54
2023/03/18 05:46:31;;;;;;;2.70;0.90;;;;;;;;;;5055918;28;20017;-51
2023/03/18 05:48:57;;;;;;;3.33;1.38;;;;;;;;;;5055094;28;20033;-54
2023/03/18 05:51:23;;;;;;;1.60;0.90;;;;;;;;;;5054736;28;20028;-54
2023/03/18 05:53:49;;;;;;;3.28;0.88;;;;;;;;;;5055124;28;20025;-51
2023/03/18 05:56:15;;;;;;;2.95;1.15;;;;;;;;;;5055230;28;20360;-54
2023/03/18 05:58:41;;;;;;;2.53;1.13;;;;;;;;;;5055224;28;20500;-52
2023/03/18 06:01:07;;;;;;;1.88;0.80;;;;;;;;;;5054699;28;20067;-52
2023/03/18 06:03:33;;;;;;;1.92;1.02;;;;;;;;;;5054896;28;20108;-56
2023/03/18 06:06:00;;;;;;;4.82;1.02;;;;;;;;;;5055195;28;20017;-54
2023/03/18 06:08:26;;;;;;;2.53;1.15;;;;;;;;;;5055400;28;20033;-53
2023/03/18 06:10:53;;;;;;;2.28;1.25;;;;;;;;;;5054844;28;20032;-54
2023/03/18 06:13:19;;;;;;;2.30;1.40;;;;;;;;;;5054607;28;20433;-55
2023/03/18 06:15:45;;;;;;;2.78;1.08;;;;;;;;;;5055347;28;20389;-55
2023/03/18 06:18:11;;;;;;;2.83;1.15;;;;;;;;;;5054345;28;20033;-55
2023/03/18 06:20:37;;;;;;;2.17;1.00;;;;;;;;;;5054461;28;20079;-56
2023/03/18 06:23:04;;;;;;;1.98;1.33;;;;;;;;;;5053250;28;20025;-56
2023/03/18 06:25:30;;;;;;;3.20;0.75;;;;;;;;;;5054635;28;20079;-54
2023/03/18 06:27:56;;;;;;;1.52;0.80;;;;;;;;;;5054137;28;20384;-55
2023/03/18 06:30:23;;;;;;;2.47;1.15;;;;;;;;;;5054151;28;20040;-56
2023/03/18 06:32:49;;;;;;;1.13;0.70;;;;;;;;;;5053825;28;20033;-56
2023/03/18 06:35:15;;;;;;;1.38;0.88;;;;;;;;;;5054346;28;20060;-55
2023/03/18 06:37:42;;;;;;;3.85;1.33;;;;;;;;;;5054067;28;20033;-54
2023/03/18 06:40:09;;;;;;;2.33;1.13;;;;;;;;;;5053981;28;20029;-56
2023/03/18 06:42:35;;;;;;;4.00;0.70;;;;;;;;;;5053956;28;20044;-54
2023/03/18 06:45:01;;;;;;;1.88;1.02;;;;;;;;;;5054442;28;20054;-57
2023/03/18 06:47:27;;;;;;;3.08;1.00;;;;;;;;;;5053742;28;20075;-55
2023/03/18 06:49:54;;;;;;;1.60;0.90;;;;;;;;;;5053914;28;20039;-54
2023/03/18 06:52:22;;;;;;;2.17;1.02;;;;;;;;;;5053444;28;20029;-57
2023/03/18 06:54:48;;;;;;;1.80;1.00;;;;;;;;;;5053733;28;20032;-57
2023/03/18 06:57:14;;;;;;;2.10;0.93;;;;;;;;;;5053439;28;20487;-54
2023/03/18 06:59:40;;;;;;;2.13;1.25;;;;;;;;;;5054111;28;20108;-56
2023/03/18 07:02:07;;;;;;;2.45;1.40;;;;;;;;;;5053759;28;20039;-54
2023/03/18 07:04:34;;;;;;;1.85;0.73;;;;;;;;;;5053345;28;20497;-54
2023/03/18 07:07:00;;;;;;;2.90;1.30;;;;;;;;;;5054300;28;20082;-57
2023/03/18 07:09:26;;;;;;;2.90;0.95;;;;;;;;;;5054234;28;20029;-57
2023/03/18 07:11:52;;;;;;;1.70;1.10;;;;;;;;;;5053649;28;20041;-58
2023/03/18 07:14:19;;;;;;;5.55;1.00;;;;;;;;;;5053236;28;20075;-55
2023/03/18 07:16:45;;;;;;;3.13;1.52;;;;;;;;;;5053601;28;20017;-55
2023/03/18 07:19:11;;;;;;;4.05;1.60;;;;;;;;;;5053525;28;20033;-57
2023/03/18 07:21:38;;;;;;;2.03;1.35;;;;;;;;;;5053537;28;20068;-55
2023/03/18 07:24:05;;;;;;;3.08;0.93;;;;;;;;;;5053478;28;20100;-52
2023/03/18 07:26:30;;;;;;;3.75;1.50;;;;;;;;;;5053892;28;20025;-57
2023/03/18 07:28:56;;;;;;;2.17;1.52;;;;;;;;;;5054183;28;20035;-57
2023/03/18 07:31:24;;;;;;;4.95;1.20;;;;;;;;;;5054020;28;20029;-55
2023/03/18 07:33:50;;;;;;;2.17;1.05;;;;;;;;;;5053422;28;20033;-55
2023/03/18 07:36:16;;;;;;;1.20;0.68;;;;;;;;;;5053874;28;20362;-56
2023/03/18 07:38:42;;;;;;;2.67;0.73;;;;;;;;;;5053827;28;20045;-52
2023/03/18 07:41:08;;;;;;;2.92;1.02;;;;;;;;;;5053641;28;20025;-55
2023/03/18 07:43:35;;;;;;;3.10;1.05;;;;;;;;;;5053821;28;20025;-55
2023/03/18 07:46:02;;;;;;;2.60;1.27;;;;;;;;;;5053871;28;20048;-57
2023/03/18 07:48:29;;;;;;;2.85;1.58;;;;;;;;;;5053562;28;20083;-57
2023/03/18 07:50:55;;;;;;;1.60;0.95;;;;;;;;;;5053163;28;20037;-56
2023/03/18 07:53:21;;;;;;;3.67;1.40;;;;;;;;;;5053552;28;20029;-55
2023/03/18 07:55:47;;;;;;;3.15;1.48;;;;;;;;;;5055099;28;20032;-57
2023/03/18 07:58:14;;;;;;;2.22;1.27;;;;;;;;;;5056933;28;20036;-56
2023/03/18 08:00:41;;;;;;;2.13;1.20;;;;;;;;;;5056779;28;20124;-56
2023/03/18 08:03:08;;;;;;;1.83;1.20;;;;;;;;;;5057363;28;20401;-55
2023/03/18 08:05:34;;;;;;;4.28;1.30;;;;;;;;;;5057428;28;20025;-57
2023/03/18 08:08:01;;;;;;;2.33;1.15;;;;;;;;;;5056756;28;20151;-57
2023/03/18 08:10:27;;;;;;;3.45;1.38;;;;;;;;;;5056762;28;20032;-57
2023/03/18 08:12:53;;;;;;;2.17;1.05;;;;;;;;;;5056632;28;20376;-57
2023/03/18 08:15:20;;;;;;;2.13;1.35;;;;;;;;;;5056912;28;20112;-56
2023/03/18 08:17:46;;;;;;;2.53;1.08;;;;;;;;;;5057008;28;20033;-57
2023/03/18 08:20:13;;;;;;;2.55;1.25;;;;;;;;;;5057175;28;20025;-58
2023/03/18 08:22:39;;;;;;;2.97;1.20;;;;;;;;;;5056626;28;20021;-58
2023/03/18 08:25:05;;;;;;;1.90;1.27;;;;;;;;;;5056740;28;20032;-58
2023/03/18 08:27:31;;;;;;;2.80;1.52;;;;;;;;;;5057143;28;20036;-58
2023/03/18 08:29:57;;;;;;;2.05;1.08;;;;;;;;;;5056393;28;20028;-58
2023/03/18 08:32:24;;;;;;;2.53;1.42;;;;;;;;;;5056790;28;20100;-58
2023/03/18 08:34:51;;;;;;;2.20;1.13;;;;;;;;;;5056425;28;20033;-58
2023/03/18 08:37:17;;;;;;;2.40;1.25;;;;;;;;;;5056445;28;20037;-59
2023/03/18 08:39:43;;;;;;;1.40;0.75;;;;;;;;;;5056311;28;20040;-58
2023/03/18 08:42:09;;;;;;;5.82;1.20;;;;;;;;;;5056573;28;20371;-57
2023/03/18 08:44:36;;;;;;;5.78;1.33;;;;;;;;;;5056226;28;20025;-59
2023/03/18 08:47:01;;;;;;;1.92;1.10;;;;;;;;;;5057056;28;20060;-58
2023/03/18 08:49:28;;;;;;;1.70;0.80;;;;;;;;;;5056663;28;20071;-57
2023/03/18 08:51:55;;;;;;;1.25;0.68;;;;;;;;;;5056091;28;20060;-59
2023/03/18 08:54:21;;;;;;;2.10;0.98;;;;;;;;;;5056377;28;20025;-58
2023/03/18 08:56:51;;;;;;;1.27;0.70;;;;;;;;;;5056465;28;20020;-59
2023/03/18 08:59:17;;;;;;;4.25;1.15;;;;;;;;;;5055859;28;20037;-59
2023/03/18 09:01:46;;;;;;;3.40;1.35;;;;;;;;;;5056502;28;20024;-59
2023/03/18 09:04:13;;;;;;;1.33;1.13;;;;;;;;;;5055503;28;20474;-58
2023/03/18 09:06:40;;;;;;;2.75;1.30;;;;;;;;;;5056365;28;20070;-58
2023/03/18 09:09:06;;;;;;;2.55;0.95;;;;;;;;;;5055753;28;20021;-59
2023/03/18 09:11:32;;;;;;;1.60;0.75;;;;;;;;;;5055408;28;20032;-59
2023/03/18 09:13:58;;;;;;;3.72;1.30;;;;;;;;;;5056204;28;20045;-59
2023/03/18 09:16:24;;;;;;;3.17;0.82;;;;;;;;;;5055682;28;20395;-59
2023/03/18 09:18:50;;;;;;;1.48;0.68;;;;;;;;;;5055412;28;20043;-59
2023/03/18 09:21:17;;;;;;;1.40;0.65;;;;;;;;;;5055538;28;20451;-59
2023/03/18 09:23:43;;;;;;;2.45;1.10;;;;;;;;;;5055616;28;20071;-59
2023/03/18 09:26:10;;;;;;;3.25;0.90;;;;;;;;;;5055489;28;20029;-60
2023/03/18 09:28:36;;;;;;;1.77;0.88;;;;;;;;;;5055528;28;20360;-59
2023/03/18 09:31:02;;;;;;;3.17;1.67;;;;;;;;;;5055628;28;20079;-59
2023/03/18 09:33:28;;;;;;;2.72;0.98;;;;;;;;;;5055473;28;20021;-60
2023/03/18 09:35:54;;;;;;;2.47;1.02;;;;;;;;;;5055110;28;20028;-58
2023/03/18 09:38:21;;;;;;;2.40;1.08;;;;;;;;;;5055077;28;20029;-60
2023/03/18 09:41:02;;;;;;;2.28;1.08;;;;;;;;;;5053879;28;20021;-59
2023/03/18 09:43:28;;;;;;;;;;;;;;;;;;5056099;28;20040;-59
2023/03/18 09:46:01;;;;;;;1.85;1.02;;;;;;;;;;5055210;28;19947;-59
2023/03/18 09:48:44;;;;;;;1.55;0.98;;;;;;;;;;5055514;28;20037;-59
2023/03/18 09:51:19;;;;;;;4.22;1.45;;;;;;;;;;5055378;28;20022;-57
2023/03/18 09:53:52;;;;;;;3.92;1.60;;;;;;;;;;5055647;28;20505;-59
2023/03/18 09:56:23;;;;;;;1.73;0.98;;;;;;;;;;5055123;28;20414;-58
2023/03/18 09:58:55;;;;;;;3.92;1.02;;;;;;;;;;5055235;28;20041;-58
2023/03/18 10:01:23;;;;;;;1.33;0.70;;;;;;;;;;5054687;28;20029;-58
2023/03/18 10:03:55;;;;;;;3.08;0.93;;;;;;;;;;5055307;28;20032;-58
2023/03/18 10:06:22;;;;;;;4.28;1.70;;;;;;;;;;5055430;28;20025;-58
2023/03/18 10:08:59;;;;;;;2.95;0.98;;;;;;;;;;5054752;28;20119;-57
2023/03/18 10:11:28;;;;;;;2.30;1.25;;;;;;;;;;5054498;28;20063;-57
2023/03/18 10:14:08;;;;;;;2.53;1.20;;;;;;;;;;5055400;28;20045;-59
2023/03/18 10:16:43;;;;;;;2.83;1.55;;;;;;;;;;5054820;28;20021;-57
2023/03/18 10:19:09;;;;;;;2.63;1.13;;;;;;;;;;5053984;28;20036;-58
2023/03/18 10:21:38;;;;;;;4.47;1.63;;;;;;;;;;5054962;28;20028;-58
2023/03/18 10:24:04;;;;;;;1.65;0.88;;;;;;;;;;5054803;28;20414;-58
2023/03/18 10:26:32;;;;;;;3.63;1.25;;;;;;;;;;5054427;28;20024;-58
2023/03/18 10:29:00;;;;;;;7.95;0.95;;;;;;;;;;5054610;28;20025;-58
2023/03/18 10:31:36;;;;;;;4.05;1.30;;;;;;;;;;5054080;28;20025;-58
2023/03/18 10:34:05;;;;;;;4.65;1.48;;;;;;;;;;5054736;28;20017;-58
2023/03/18 10:36:31;;;;;;;3.88;1.60;;;;;;;;;;5054900;28;20029;-58
2023/03/18 10:38:59;;;;;;;1.90;0.93;;;;;;;;;;5053617;28;20037;-59
2023/03/18 10:41:36;;;;;;;1.95;0.98;;;;;;;;;;5053863;28;20013;-59
2023/03/18 10:44:03;;;;;;;2.80;1.23;;;;;;;;;;5053648;28;20028;-59
2023/03/18 10:46:30;;;;;;;2.13;1.08;;;;;;;;;;5053989;28;20034;-59
2023/03/18 10:49:09;;;;;;;3.35;0.80;;;;;;;;;;5054346;28;20032;-59
2023/03/18 10:51:49;;;;;;;2.65;1.33;;;;;;;;;;5053984;28;20021;-59
2023/03/18 10:54:36;;;;;;;2.85;1.75;;;;;;;;;;5054346;28;20021;-59
2023/03/18 10:57:02;;;;;;;3.17;0.80;;;;;;;;;;5053844;28;20029;-59
2023/03/18 10:59:28;;;;;;;4.10;1.13;;;;;;;;;;5053391;28;20017;-58
2023/03/18 11:01:59;;;;;;;2.60;1.08;;;;;;;;;;5053578;28;20073;-59
2023/03/18 11:04:27;;;;;;;4.30;0.82;;;;;;;;;;5053982;28;20036;-59
2023/03/18 11:07:01;;;;;;;2.17;1.02;;;;;;;;;;5053854;28;20025;-59
2023/03/18 11:09:32;;;;;;;1.83;0.82;;;;;;;;;;5054298;28;20059;-59
2023/03/18 11:11:58;;;;;;;;;;;;;;;;;;5053760;28;20116;-59
2023/03/18 11:14:29;;;;;;;4.65;0.70;;;;;;;;;;5054089;28;19923;-59
2023/03/18 11:16:55;;;;;;;3.22;1.00;;;;;;;;;;5053610;28;20467;-59
2023/03/18 11:19:30;;;;;;;10.65;0.80;;;;;;;;;;5053456;28;20033;-59
2023/03/18 11:22:09;;;;;;;1.70;0.93;;;;;;;;;;5053485;28;20017;-59
2023/03/18 11:24:38;;;;;;;1.02;0.70;;;;;;;;;;5053578;28;20363;-59
2023/03/18 11:27:05;;;;;;;2.53;1.52;;;;;;;;;;5053541;28;20025;-59
2023/03/18 11:29:33;;;;;;;4.45;1.05;;;;;;;;;;5054820;28;20025;-59
2023/03/18 11:32:00;;;;;;;1.85;0.75;;;;;;;;;;5057555;28;20025;-59
2023/03/18 11:34:31;;;;;;;3.00;0.90;;;;;;;;;;5057028;28;20484;-59
2023/03/18 11:37:03;;;;;;;1.85;1.05;;;;;;;;;;5057789;28;20432;-59
2023/03/18 11:39:30;;;;;;;2.50;0.90;;;;;;;;;;5057434;28;20458;-59
2023/03/18 11:41:58;;;;;;;2.78;0.82;;;;;;;;;;5057360;28;20021;-59
2023/03/18 11:44:27;;;;;;;1.35;0.68;;;;;;;;;;5057876;28;20023;-59
2023/03/18 11:46:57;;;;;;;3.65;1.17;;;;;;;;;;5058071;28;20108;-59
2023/03/18 11:49:25;;;;;;;1.25;0.47;;;;;;;;;;5057728;28;20443;-59
2023/03/18 11:51:57;;;;;;;1.63;0.80;;;;;;;;;;5057520;28;20048;-59
2023/03/18 11:54:39;;;;;;;1.65;0.80;;;;;;;;;;5057287;28;20415;-59
2023/03/18 11:57:11;;;;;;;3.47;0.95;;;;;;;;;;5057006;28;20060;-59
2023/03/18 11:59:40;;;;;;;3.63;1.08;;;;;;;;;;5057030;28;20025;-59
2023/03/18 12:02:24;;;;;;;3.28;0.60;;;;;;;;;;5057476;28;20021;-59
2023/03/18 12:05:23;;;;;;;1.55;0.88;;;;;;;;;;5057327;28;20025;-59
2023/03/18 12:08:02;;;;;;;1.55;0.80;;;;;;;;;;5044855;28;20072;-59
2023/03/18 12:10:34;;;;;;;1.60;0.70;;;;;;;;;;5056873;28;20032;-59
2023/03/18 12:13:00;;;;;;;1.83;0.85;;;;;;;;;;5057319;28;20135;-59
2023/03/18 12:15:47;;;;;;;1.95;0.70;;;;;;;;;;5056731;28;20049;-59
2023/03/18 12:18:22;;;;;;;1.10;0.40;;;;;;;;;;5056577;28;20048;-59
2023/03/18 12:20:49;;;;;;;1.20;0.52;;;;;;;;;;5056582;28;20371;-59
2023/03/18 12:23:28;;;;;;;2.00;0.90;;;;;;;;;;5056932;28;20021;-59
2023/03/18 12:25:58;;;;;;;2.75;0.75;;;;;;;;;;5057699;28;20056;-59
2023/03/18 12:28:35;;;;;;;3.60;0.68;;;;;;;;;;5056913;28;20033;-59
2023/03/18 12:31:13;;;;;;;2.78;0.80;;;;;;;;;;5056571;28;20052;-59
2023/03/18 12:33:49;;;;;;;4.35;1.15;;;;;;;;;;5056041;28;20474;-59
2023/03/18 12:36:31;;;;;;;4.88;1.15;;;;;;;;;;5056909;28;20036;-59
2023/03/18 12:39:16;;;;;;;2.15;0.55;;;;;;;;;;5057113;28;20033;-59
2023/03/18 12:41:42;;;;;;;2.20;0.73;;;;;;;;;;5055623;28;20040;-59
2023/03/18 12:44:18;;;;;;;1.88;0.70;;;;;;;;;;5056646;28;20100;-59
2023/03/18 12:46:53;;;;;;;4.00;0.82;;;;;;;;;;5056439;28;20105;-59
2023/03/18 12:49:21;;;;;;;1.38;0.73;;;;;;;;;;5056095;28;20032;-59
2023/03/18 12:51:47;;;;;;;1.77;0.80;;;;;;;;;;5055938;28;20494;-59
2023/03/18 12:54:19;;;;;;;5.05;1.00;;;;;;;;;;5055763;28;20027;-59
2023/03/18 12:56:49;;;;;;;2.22;0.50;;;;;;;;;;5056540;28;20029;-59
2023/03/18 12:59:19;;;;;;;2.28;0.80;;;;;;;;;;5056293;28;20099;-59
2023/03/18 13:01:58;;;;;;;1.57;0.67;;;;;;;;;;5056121;28;20025;-59
2023/03/18 13:04:27;;;;;;;2.13;0.70;;;;;;;;;;5055791;28;20478;-59
2023/03/18 13:07:02;;;;;;;1.98;0.70;;;;;;;;;;5055733;28;20025;-59
2023/03/18 13:09:43;;;;;;;1.00;0.50;;;;;;;;;;5056278;28;20031;-59
2023/03/18 13:12:12;;;;;;;1.27;0.68;;;;;;;;;;5055520;28;20115;-59
2023/03/18 13:14:50;;;;;;;7.55;0.80;;;;;;;;;;5056253;28;20087;-59
2023/03/18 13:17:20;;;;;;;1.17;0.50;;;;;;;;;;5055524;28;20117;-59
2023/03/18 13:19:46;;;;;;;1.95;0.73;;;;;;;;;;5056479;28;20108;-59
2023/03/18 13:22:31;;;;;;;7.88;0.88;;;;;;;;;;5055579;28;20071;-59
2023/03/18 13:25:04;;;;;;;2.55;0.65;;;;;;;;;;5055754;28;20094;-59
2023/03/18 13:27:43;;;;;;;1.85;0.82;;;;;;;;;;5055306;28;20025;-59
2023/03/18 13:30:35;;;;;;;0.90;0.38;;;;;;;;;;5055929;28;20037;-59
2023/03/18 13:33:04;;;;;;;1.48;0.40;;;;;;;;;;5046937;28;20083;-59
2023/03/18 13:35:45;;;;;;;1.13;0.50;;;;;;;;;;5055631;28;20057;-59
2023/03/18 13:38:11;;;;;;;3.70;1.15;;;;;;;;;;5055027;28;20525;-59
2023/03/18 13:40:37;;;;;;;1.95;0.55;;;;;;;;;;5054868;28;20021;-59
2023/03/18 13:43:04;;;;;;;1.38;0.57;;;;;;;;;;5055050;28;20356;-59
2023/03/18 13:45:32;;;;;;;1.02;0.63;;;;;;;;;;5055073;28;20078;-59
2023/03/18 13:47:58;;;;;;;1.70;0.35;;;;;;;;;;5054979;28;20052;-59
2023/03/18 13:50:31;;;;;;;3.28;0.63;;;;;;;;;;5054954;28;20025;-59
2023/03/18 13:52:58;;;;;;;5.53;0.65;;;;;;;;;;5053958;28;20029;-59
2023/03/18 13:55:31;;;;;;;4.45;0.65;;;;;;;;;;5055020;28;20463;-59
2023/03/18 13:58:09;;;;;;;2.78;0.40;;;;;;;;;;5054848;28;20375;-59
2023/03/18 14:00:40;;;;;;;1.45;0.80;;;;;;;;;;5055722;28;20025;-59
2023/03/18 14:03:17;;;;;;;1.92;0.68;;;;;;;;;;5054688;28;20029;-59
2023/03/18 14:05:45;;;;;;;1.50;0.60;;;;;;;;;;5055565;28;20017;-59
2023/03/18 14:08:29;;;;;;;3.60;0.82;;;;;;;;;;5054631;28;20099;-59
2023/03/18 14:11:13;;;;;;;2.67;0.40;;;;;;;;;;5054874;28;20082;-59
2023/03/18 14:13:39;;;;;;;3.10;1.00;;;;;;;;;;5054725;28;20087;-59
2023/03/18 14:16:18;;;;;;;0.80;0.47;;;;;;;;;;5091864;27;20433;-58
2023/03/18 14:18:45;;;;;;;1.85;0.52;;;;;;;;;;5091807;28;20101;-60
2023/03/18 14:21:27;;;;;;;1.90;0.60;;;;;;;;;;5091777;28;20024;-59
2023/03/18 14:24:13;;;;;;;1.63;0.88;;;;;;;;;;5091777;28;20020;-58
2023/03/18 14:26:40;;;;;;;3.00;0.95;;;;;;;;;;5092052;28;20380;-58
2023/03/18 14:29:06;;;;;;;2.25;0.82;;;;;;;;;;5090716;28;20466;-57
2023/03/18 14:31:37;;;;;;;1.45;0.55;;;;;;;;;;5090733;28;20031;-57
2023/03/18 14:34:13;;;;;;;1.20;0.65;;;;;;;;;;5090856;28;20025;-57
2023/03/18 14:36:51;;;;;;;4.10;0.80;;;;;;;;;;5091462;28;20408;-57
2023/03/18 14:39:19;;;;;;;2.00;0.98;;;;;;;;;;5089504;28;20462;-57
2023/03/18 14:41:47;;;;;;;2.15;1.20;;;;;;;;;;5090921;28;20537;-58
2023/03/18 14:44:20;;;;;;;1.45;0.80;;;;;;;;;;5090782;28;20073;-57
2023/03/18 14:46:46;;;;;;;0.90;0.25;;;;;;;;;;5090701;28;20033;-57
2023/03/18 14:49:31;;;;;;;1.33;0.50;;;;;;;;;;5090608;28;20025;-57
2023/03/18 14:51:58;;;;;;;1.70;0.73;;;;;;;;;;5091048;28;20017;-57